This is the latest recevied weather packets stored in our database for station/object JA0BES-13. If no packets are shown the sender has not sent any weather packets the latest 10 day(s).
| Time | Temp. | Humidity | Pressure | Rain* | Wind** | Luminosity | Snow |
|---|---|---|---|---|---|---|---|
| 1777603892 | 15.56° C | 100% | 997.4 hPa | 7.37 mm | - | - | - |
| 1777603292 | 15.56° C | 100% | 998 hPa | 7.37 mm | - | - | - |
| 1777602692 | 16.11° C | 100% | 997.9 hPa | 7.37 mm | - | - | - |
| 1777587083 | 12.78° C | 100% | 1005.3 hPa | 3.56 mm | - | - | - |
| 1777582880 | 13.33° C | 100% | 1006 hPa | 1.52 mm | - | - | - |
| 1777552262 | 11.67° C | 88% | 1015.6 hPa | 0 mm | - | - | - |
| 1777551661 | 11.67° C | 88% | 1015.8 hPa | 0 mm | - | - | - |
| 1777550461 | 11.67° C | 87% | 1015.9 hPa | 0 mm | - | - | - |
| 1777548660 | 11.67° C | 87% | 1016.1 hPa | 0 mm | - | - | - |
| 1777548059 | 11.67° C | 87% | 1016.1 hPa | 0 mm | - | - | - |
| 1777546859 | 11.67° C | 86% | 1016 hPa | 0 mm | - | - | - |
| 1777546259 | 11.67° C | 86% | 1016 hPa | 0 mm | - | - | - |
| 1777545658 | 11.67° C | 86% | 1015.9 hPa | 0 mm | - | - | - |
| 1777545058 | 12.22° C | 85% | 1015.8 hPa | 0 mm | - | - | - |
| 1777544457 | 12.22° C | 85% | 1015.9 hPa | 0 mm | - | - | - |
| 1777543857 | 12.22° C | 84% | 1015.8 hPa | 0 mm | - | - | - |
| 1777543257 | 12.22° C | 83% | 1015.8 hPa | 0 mm | - | - | - |
| 1777542656 | 12.22° C | 82% | 1015.9 hPa | 0 mm | - | - | - |
| 1777542056 | 12.78° C | 82% | 1016 hPa | 0 mm | - | - | - |
| 1777541456 | 12.78° C | 81% | 1015.9 hPa | 0 mm | - | - | - |
| 1777540855 | 12.78° C | 81% | 1015.8 hPa | 0 mm | - | - | - |
| 1777540255 | 12.78° C | 81% | 1015.9 hPa | 0 mm | - | - | - |
| 1777539654 | 12.78° C | 79% | 1016 hPa | 0 mm | - | - | - |
| 1777539054 | 13.33° C | 78% | 1015.7 hPa | 0 mm | - | - | - |
| 1777538454 | 13.33° C | 78% | 1015.7 hPa | 0 mm | - | - | - |
* Rain since midnight (hover to see other rain measurements)
** Current wind speed in m/s (hover to see current wind gust speed)